createdAt,value
2023-03-14T00:00:03.049Z,2.5
2023-03-14T00:15:13.187Z,2.4
2023-03-14T00:30:28.973Z,2.7
2023-03-14T00:45:38.916Z,2.6
2023-03-14T01:00:49.078Z,2.5
2023-03-14T01:15:59.019Z,2.4
2023-03-14T01:31:09.194Z,2.5
2023-03-14T01:46:19.269Z,2
2023-03-14T02:01:29.305Z,2.5
2023-03-14T02:16:39.474Z,2.4
2023-03-14T02:31:49.521Z,2.8
2023-03-14T02:46:59.258Z,1.7
2023-03-14T03:02:12.541Z,2.3
2023-03-14T03:17:22.252Z,2.6
2023-03-14T03:32:32.253Z,2.4
2023-03-14T03:47:44.384Z,2.3
2023-03-14T04:02:53.792Z,1.3
2023-03-14T04:18:03.263Z,1.6
2023-03-14T04:33:13.040Z,1.2
2023-03-14T04:48:22.076Z,1.3
2023-03-14T05:03:34.283Z,1.3
2023-03-14T05:18:43.856Z,1.2
2023-03-14T05:33:53.581Z,1.7
2023-03-14T05:49:03.324Z,2
2023-03-14T06:04:12.709Z,2.1
2023-03-14T06:19:22.483Z,2
2023-03-14T06:34:31.915Z,2.6
2023-03-14T06:49:41.359Z,1.6
2023-03-14T07:04:51.314Z,1.2
2023-03-14T07:20:01.420Z,1.2
2023-03-14T07:35:13.982Z,0.9
2023-03-14T07:50:25.050Z,1.1
2023-03-14T08:05:37.242Z,0.9
2023-03-14T08:20:47.882Z,1.3
2023-03-14T08:36:00.972Z,1.2
2023-03-14T08:51:11.613Z,0.9
2023-03-14T09:06:21.490Z,1.1
2023-03-14T09:21:31.205Z,1.3
2023-03-14T09:36:41.351Z,1.5
2023-03-14T09:51:51.262Z,1.5
2023-03-14T10:07:05.021Z,1.6
2023-03-14T10:22:14.871Z,1.7
2023-03-14T10:37:25.173Z,2.2
2023-03-14T10:53:02.980Z,2.5
2023-03-14T11:08:16.999Z,2.7
2023-03-14T11:23:29.575Z,1.3
2023-03-14T11:38:38.702Z,2.9
2023-03-14T11:53:47.811Z,1.2
2023-03-14T12:08:57.525Z,1.1
2023-03-14T12:24:06.597Z,1.1
2023-03-14T12:39:15.502Z,1.1
2023-03-14T12:54:25.266Z,1.4
2023-03-14T13:09:35.703Z,1.7
2023-03-14T13:24:45.766Z,2
2023-03-14T13:39:56.343Z,2.3
2023-03-14T13:55:06.981Z,2.2
2023-03-14T14:10:20.458Z,3.6
2023-03-14T14:25:30.385Z,3.2
2023-03-14T14:40:39.980Z,3.4
2023-03-14T14:55:49.955Z,2.7
2023-03-14T15:11:00.005Z,3.3
2023-03-14T15:26:10.703Z,3
2023-03-14T15:41:20.624Z,3
2023-03-14T15:56:30.238Z,2.5
2023-03-14T16:11:40.865Z,2.7
2023-03-14T16:26:50.009Z,2.7
2023-03-14T16:42:00.542Z,1.8
2023-03-14T16:57:09.794Z,2.4
2023-03-14T17:12:20.477Z,2.5
2023-03-14T17:27:30.216Z,3
2023-03-14T17:42:39.958Z,2.5
2023-03-14T17:57:49.981Z,3.7
2023-03-14T18:12:59.427Z,3.2
2023-03-14T18:28:09.065Z,2.5
2023-03-14T18:43:20.555Z,2.8
2023-03-14T18:58:30.498Z,3.3
2023-03-14T19:13:39.667Z,3.3
2023-03-14T19:28:49.043Z,2.9
2023-03-14T19:44:01.442Z,2.5
2023-03-14T19:59:11.032Z,2.8
2023-03-14T20:14:24.314Z,2.9
2023-03-14T20:29:33.889Z,2.5
2023-03-14T20:44:43.289Z,3.5
2023-03-14T20:59:53.158Z,3
2023-03-14T21:15:02.734Z,3.1
2023-03-14T21:30:11.885Z,4.3
2023-03-14T21:45:21.117Z,4.1
2023-03-14T22:00:30.561Z,3
2023-03-14T22:15:40.158Z,2.7
2023-03-14T22:30:49.480Z,4.6
2023-03-14T22:45:59.397Z,3.1
2023-03-14T23:01:09.296Z,3
2023-03-14T23:16:37.920Z,2.8
2023-03-14T23:31:51.225Z,3.5
2023-03-14T23:47:00.792Z,2.5
